Historyczne dane pomiarowe

Dodano dane terminowe – wersja testowa.

Dane z okresu 1951-2019

Wersja bazy: 1.34 [2019-03-16, lista zmian], aktualizacja planowana na 2019-04-15

Dane meteo z obszaru Polski uzyskane na podstawie danych udostępnionych przez Instytut Meteorologii i Gospodarki Wodnej – Państwowy Instytut Badawczy.

 

Wybierz Datę:    

       

TemperaturaWilgotnośćWiatrCiśnienieOpadyŚniegCzas trwania zjawisk
 Stacja t tx tn tng RH VA  wxwx mslp ppp RRR   cm mm wxwxwxwxwxwxwx
1991-04-17 -6.0 0.2 -9.0-10.8 89.5- 6.0 1.7---- 0.5-- 32---------
1991-04-18 -5.7 -3.0 -8.2-14.3 86.3- 7.0 3.0---- 11.9-- 28---------
1991-04-19 -5.4 -1.6 -6.5 -8.4 92.5- 7.3 1.3---- 3.3-- 37---------
1991-04-20 -6.0 -4.0 -7.0 -9.9 92.5- 8.0 1.0---- 10.0-- 38---------
1991-04-21 -7.2 -4.2 -9.9-15.6 84.8- 6.3 1.3---- 18.1-- 54---------
1991-04-22 -7.5 -3.0-12.3-12.8 77.3- 3.3 1.3---- 1.0-- 79---------
1991-04-23 -4.2 -0.5 -8.1-14.9 60.0- 4.3 1.7---- 0.2-- 60---------
1991-04-24 -3.5 -1.8 -6.1-11.7 67.8- 6.7 2.0---- 0.6-- 48---------
1991-04-25 -1.8 1.5 -4.8-10.9 85.3- 7.7 2.0---- 14.1-- 47---------
1991-04-26 -1.2 1.5 -3.4 -4.4 75.8- 6.7 3.0---- 0.2-- 57---------
1991-04-27 1.3 3.8 -0.4 -7.0 72.3- 6.7 2.3---- 4.1-- 51---------
1991-04-28 0.2 1.7 -1.0 -4.5 94.8- 8.0 1.0---- 2.9-- 50---------
1991-04-29 2.2 5.6 -2.1 -8.5 83.5- 5.0 1.7---- 0.2-- 49---------
1991-04-30 1.6 4.3 -1.6 -7.7 78.0- 6.7 1.3---- 1.4-- 44---------
1991-05-01 3.2 6.2 0.2 -6.4 75.0- 5.7 3.0---- 2.6-- 39---------
1991-05-02 4.4 7.4 1.9 -3.9 85.0- 7.3 5.0---- 22.0-- 29---------
1991-05-03 4.9 7.6 2.5 -2.7 85.5- 7.7 4.3---- 21.2-- 19---------
1991-05-04 4.0 6.7 0.2 -2.8 85.3- 7.7 5.7---- 8.1------------
1991-05-05 1.0 5.2 -1.5 -4.0 90.5- 7.0 1.7---- 0.4------------
1991-05-06 2.5 5.5 -0.6 -4.9 79.3- 6.3 3.3---- 5.0------------
1991-05-07 2.4 5.4 -1.0 -4.1 87.3- 6.3 2.3---- 3.9------------
1991-05-08 -1.5 2.1 -3.8 -5.1 97.5- 8.0 1.0---- 2.7------------
1991-05-09 1.1 5.4 -3.4 -7.9 97.8- 8.0 0.7---- 0.0-- 1---------
1991-05-10 6.0 11.1 -0.5 -4.4 62.0- 2.0 2.7---- 0.0------------
1991-05-11 8.3 13.1 2.8 -0.2 68.3- 6.7 1.7---- 2.4------------
1991-05-12 6.6 12.1 3.4 -0.9 77.5- 5.0 1.7---- 6.7------------
1991-05-13 1.2 6.0 0.1 -2.6 99.5- 8.0 1.0---- 2.4------------
1991-05-14 2.8 8.3 -0.8 -4.6 86.3- 6.7 1.0---- 7.2------------
1991-05-15 -0.5 5.1 -2.9 -4.8 94.0- 8.0 1.3---- 5.6-- 4---------
1991-05-16 -1.4 1.8 -6.8-14.0 76.5- 6.7 1.3---- 9.3-- 6---------
336.6 ms

 

Źródłem pochodzenia danych jest Instytut Meteorologii i Gospodarki Wodnej – Państwowy Instytut Badawczy. Dane Instytutu Meteorologii i Gospodarki Wodnej – Państwowego Instytutu Badawczego zostały przetworzone.

Dane źródłowe można odnaleźć na stronie https://dane.imgw.pl